Pure Air, Missouri
Current Conditions -  °F | °C
As of 9:55 PM on Tuesday 25 Nov 2014 (Local Time) from KIRK Reporting Station
Clear Clear  
Wind Chill: 16°   Ceiling: Unl
Heat Index: 25°   Visibility: 10mi
Dew Point: 19°   Wind: 8mph
Humidity: 78%   Direction: 140°SE
Pressure: 30.1"   Gusts: NA
Location:  40.2969°N, 92.7524°W
Report Text: KIRK 260355Z AUTO 14007KT 10SM CLR M04/M07 A3010 RMK AO2 SLP208 T10391072
Loading
Personal Weather Stations






























Interactive Weather Map New forecast layout! Learn more

10-Day Weather Forecast

Advertisements
Track Severe Weather on mobile